Flight Track Log - Related Links

Times and Time Zones

All times are in EDT time to prevent confusion due to time zone crossing. See the FLG4222 flight status page for this flight to view local times or setup timezone preferences in your user account.

Time Position Orientation Groundspeed Altitude Reporting Facility
EDT Latitude Longitude Course Direction KTS MPH feet Rate Location/Type
Wed 11:43:59 AM 42.2719 -76.1542 290° West 196 226 7,000  Level New York Center
Wed 11:46:18 AM 42.3364 -76.3786 291° West 280 322 11,100 1,642 Climbing Cleveland Center
Wed 11:47:00 AM 42.2264 -76.5785 289° West  Level Estimated
Wed 11:47:20 AM 42.3661 -76.4922 290° West 315 362 12,500  Level Cleveland Center
Wed 11:48:21 AM 42.3981 -76.6075 291° West 326 375 14,300 2,000 Climbing Cleveland Center
Wed 11:49:23 AM 42.4283 -76.7178 290° West 315 362 16,600 1,645 Climbing Cleveland Center
Wed 11:50:25 AM 42.4567 -76.8292 289° West 315 362 17,700 927 Climbing Cleveland Center
Wed 11:51:26 AM 42.4897 -76.9472 291° West 335 386 18,500 829 Climbing Cleveland Center
Wed 11:52:28 AM 42.5219 -77.0697 290° West 346 398 19,400 968 Climbing Cleveland Center
Wed 11:53:30 AM 42.5617 -77.2197 290° West 353 406 20,500 976 Climbing Cleveland Center
Wed 11:54:31 AM 42.5947 -77.3436 290° West 352 405 21,400 878 Climbing Cleveland Center
Wed 11:55:33 AM 42.6272 -77.4683 290° West 353 406 22,300 871 Climbing Cleveland Center
Wed 11:56:35 AM 42.6594 -77.5917 290° West 353 406 23,200 823 Climbing Cleveland Center
Wed 11:57:37 AM 42.6981 -77.7358 290° West 364 419 24,000 683 Climbing Cleveland Center
Wed 11:58:38 AM 42.7303 -77.8619 289° West 358 412 24,600 634 Climbing Cleveland Center
Wed 11:59:40 AM 42.7625 -77.9892 289° West 358 412 25,300 677 Climbing Cleveland Center
Wed 12:00:42 PM 42.7953 -78.1153 290° West 355 409 26,000 339 Climbing Cleveland Center
Wed 12:01:44 PM 42.8278 -78.2450 289° West 364 419 26,000  Level Cleveland Center
Wed 12:02:45 PM 42.8617 -78.3808 289° West 381 438 26,000  Level Cleveland Center
Wed 12:03:47 PM 42.9042 -78.5467 289° West 389 448 26,000  Level Cleveland Center
Wed 12:04:49 PM 42.9211 -78.6908 279° West 394 453 26,000  Level Cleveland Center
Wed 12:05:51 PM 42.9006 -78.8419 260° West 405 466 26,000  Level Cleveland Center
Wed 12:06:53 PM 42.8783 -78.9919 259° West 405 466 26,000  Level Cleveland Center
Wed 12:07:55 PM 42.8569 -79.1408 259° West 403 464 26,000  Level Cleveland Center
Wed 12:08:56 PM 42.8353 -79.2831 258° West 385 443 26,000  Level Cleveland Center
Wed 12:09:58 PM 42.8122 -79.4394 259° West 353 406 26,000  Level Cleveland Center
Wed 12:11:00 PM 42.7933 -79.5706 259° West 353 406 26,000  Level Cleveland Center
Wed 12:12:02 PM 42.7742 -79.6914 258° West 329 379 26,000  Level Cleveland Center
Wed 12:13:04 PM 42.7553 -79.8144 258° West 332 382 26,000  Level Cleveland Center
Wed 12:14:06 PM 42.7461 -79.9494 265° West 358 412 26,000  Level Cleveland Center
Wed 12:15:08 PM 42.7392 -80.0972 266° West 376 433 26,000  Level Cleveland Center
Wed 12:16:10 PM 42.7339 -80.2464 267° West 390 449 26,000  Level Cleveland Center
Wed 12:17:12 PM 42.7250 -80.4197 266° West 391 450 26,000  Level Cleveland Center
Wed 12:18:14 PM 42.7178 -80.5722 266° West 398 458 26,000 -290 Level Cleveland Center
Wed 12:19:16 PM 42.7119 -80.7244 267° West 400 460 25,400 -823 Descending Cleveland Center
Wed 12:20:18 PM 42.7056 -80.8781 267° West 402 463 24,300 -1,016 Descending Cleveland Center
Wed 12:21:20 PM 42.6900 -81.0222 262° West 388 447 23,300 -968 Descending Cleveland Center
Wed 12:22:22 PM 42.6736 -81.1650 261° West 382 440 22,300 -968 Descending Cleveland Center
Wed 12:23:24 PM 42.6583 -81.3050 262° West 375 432 21,300 -1,065 Descending Cleveland Center
Wed 12:24:26 PM 42.6389 -81.4664 261° West 369 425 20,100 -1,065 Descending Cleveland Center
Wed 12:25:28 PM 42.6222 -81.6039 261° West 367 422 19,100 -960 Descending Cleveland Center
Wed 12:26:31 PM 42.6064 -81.7425 261° West 368 423 18,100 -912 Descending Cleveland Center
Wed 12:27:33 PM 42.5897 -81.8742 260° West 361 415 17,200 -968 Descending Cleveland Center
Wed 12:28:35 PM 42.5750 -81.9994 261° West 343 395 16,100 -1,113 Descending Cleveland Center
Wed 12:29:37 PM 42.5736 -82.1389 269° West 331 381 14,900 -1,113 Descending Cleveland Center
Wed 12:30:39 PM 42.5928 -82.2442 284° West 334 384 13,800 -1,239 Descending Cleveland Center
Wed 12:31:09 PM 42.5861 -82.3244 264° West 342 394 13,000 -1,355 Descending Cleveland Center
Wed 12:31:41 PM 42.5625 -82.3853 242° Southwest 338 389 12,400 -984 Descending Cleveland Center
Wed 12:32:10 PM 42.5442 -82.4464 248° West 326 375 12,000 -387 Descending Cleveland Center
Wed 12:32:43 PM 42.5264 -82.4883 240° Southwest 310 357 12,000 98 Level Cleveland Center
Wed 12:33:11 PM 42.5106 -82.5383 247° West 274 315 12,100 -97 Climbing Cleveland Center
Wed 12:33:45 PM 42.4947 -82.5803 243° Southwest 276 318 11,900 -787 Descending Cleveland Center
Wed 12:34:12 PM 42.4786 -82.6333 248° West 277 319 11,300 -1,065 Descending Cleveland Center
Wed 12:34:47 PM 42.4614 -82.6731 240° Southwest 275 316 10,800 -968 Descending Cleveland Center
Wed 12:35:14 PM 42.4392 -82.7158 235° Southwest 267 307 10,300 -968 Descending Cleveland Center
Wed 12:35:49 PM 42.4161 -82.7486 226° Southwest 261 300 9,800 -984 Descending Cleveland Center
Wed 12:36:15 PM 42.3919 -82.7914 233° Southwest 236 272 9,300 -871 Descending Cleveland Center
Wed 12:36:51 PM 42.3897 -82.8239 265° West 246 283 8,900 -1,475 Descending Cleveland Center
Wed 12:37:16 PM 42.4069 -82.8725 296° West 222 255 7,800 -1,742 Descending Cleveland Center
Wed 12:37:53 PM 42.4303 -82.9069 313° West 224 258 7,100 -627 Descending Cleveland Center
Wed 12:38:23 PM 42.4542 -82.9411 313° West 213 245 7,100 -97 Level Cleveland Center
Wed 12:38:55 PM 42.4636 -82.9683 295° West 213 245 7,000 -214 Descending Cleveland Center
Wed 12:39:19 PM 42.4617 -83.0100 266° West 218 251 6,900 -774 Descending Cleveland Center
Wed 12:39:57 PM 42.4533 -83.0486 254° West 217 250 6,200 -787 Descending Cleveland Center
Wed 12:40:20 PM 42.4453 -83.0897 255° West 215 247 6,100 -194 Descending Cleveland Center
Wed 12:40:59 PM 42.4250 -83.1200 228° Southwest 223 257 6,000 -492 Descending Cleveland Center
Wed 12:41:21 PM 42.4047 -83.1550 232° Southwest 218 251 5,600 -774 Descending Cleveland Center
Wed 12:42:01 PM 42.3869 -83.1811 227° Southwest 217 250 5,200 -1,082 Descending Cleveland Center
Wed 12:42:22 PM 42.3708 -83.2125 235° Southwest 185 213 4,500 -1,429 Descending Cleveland Center
Wed 12:43:04 PM 42.3447 -83.2406 218° Southwest 194 223 3,700 -1,082 Descending Cleveland Center
Wed 12:43:23 PM 42.3303 -83.2519 210° Southwest 182 209 3,400 -774 Descending Cleveland Center
Wed 12:44:06 PM 42.3008 -83.2719 207° Southwest 182 209 2,900 -968 Descending Cleveland Center
Wed 12:44:25 PM 42.2858 -83.2853 213° Southwest 184 212 2,400 -1,161 Descending Cleveland Center
Wed 12:45:08 PM 42.2589 -83.3036 207° Southwest 173 199 1,700 -982 Descending Cleveland Center
Wed 12:45:20 PM 42.2503 -83.3114 214° Southwest 146 168 1,500 -581 Descending Cleveland Center
Wed 12:46:10 PM 42.2269 -83.3264 205° Southwest 149 171 1,100 -480 Descending Cleveland Center
Wed 12:48:00 PM 42.2124 -83.3534 246° West  Level Estimated
Wed 12:55:00 PM 42.2124 -83.3534 246° West  Level Estimated

Login

Don't have an account? Register now (free) for customized features, flight alerts, and more!